Dades meteomassalio
Diari Summary for Juny 9, 2017 Units:  Metric    English   Both
« Previous Day
Next Day »
Diari Semanal Mensual Anual Personalitzat
  Maxima: Minima: Mijana:
Temperatura: -17.8 °C -8.4 °C -4.4 °C
Rosada: -17.8 °C -11.7 °C -9.1 °C
Humitat: Humidity % 40 % 62 %
Velocitat del vent: 0 km/h 0 km/h 9.5 km/h
Racha vent: 0 km/h - -
Vent:- - East
Pressio: 0 hPa 34269.7 hPa -
Pluja: 0 mm    
Historical Graphs
 
 
Tabular Data for Juny 9, 2017
Time Temperature Dew Point Pressure Wind Wind Speed Wind Gust Humidity Rainfall Rate (Hourly) solar Conditions
-17.8 °C -17.8 °C 0 hPa Calm     Humidity % 0 mm SolarRadiationWatts/m^2 W/m2 Conditions
00:03 -4.6 °C -11.3 °C 34279.9 hPa SSE 20.9 km/h 20.9 km/h 47 % 0 mm 0.0 W/m2 CLR
00:13 -4.6 °C -11.4 °C 34279.9 hPa SSE 9 km/h 9 km/h 46 % 0 mm 0.0 W/m2 CLR
00:18 -4.6 °C -11.6 °C 34279.9 hPa SSE 9 km/h 9 km/h 45 % 0 mm 0.0 W/m2 CLR
00:23 -4.6 °C -11.6 °C 34279.9 hPa South 11.9 km/h 11.9 km/h 45 % 0 mm 0.0 W/m2 CLR
00:28 -4.6 °C -11.6 °C 34279.9 hPa SSE 10.3 km/h 10.3 km/h 45 % 0 mm 0.0 W/m2 CLR
00:33 -4.5 °C -11.7 °C 34279.9 hPa Calm     44 % 0 mm 0.0 W/m2 CLR
00:38 -4.5 °C -11.7 °C 34279.9 hPa Calm     44 % 0 mm 0.0 W/m2 CLR
00:43 -4.5 °C -11.6 °C 34293.4 hPa Calm     45 % 0 mm 0.0 W/m2 CLR
00:48 -4.6 °C -11.6 °C 34293.4 hPa Calm     45 % 0 mm 0.0 W/m2 CLR
00:53 -4.6 °C -11.3 °C 34293.4 hPa Calm     47 % 0 mm 0.0 W/m2 CLR
00:54 -4.6 °C -11.3 °C 34303.6 hPa Calm     47 % 0 mm 0.0 W/m2 CLR
00:59 -4.7 °C -11 °C 34303.6 hPa ENE 9 km/h 9 km/h 49 % 0 mm 0.0 W/m2 CLR
01:04 -5 °C -10.2 °C 34303.6 hPa Calm     56 % 0 mm 0.0 W/m2 CLR
01:09 -5.4 °C -9.9 °C 34303.6 hPa NNE 10.3 km/h 10.3 km/h 60 % 0 mm 0.0 W/m2 CLR
01:14 -5.7 °C -9.6 °C 34303.6 hPa NE 17.9 km/h 17.9 km/h 64 % 0 mm 0.0 W/m2 CLR
01:19 -6.1 °C -9.1 °C 34313.7 hPa NE 50.7 km/h 50.7 km/h 71 % 0 mm 0.0 W/m2 CLR
01:24 -6.5 °C -9 °C 34313.7 hPa ENE 31.1 km/h 31.1 km/h 75 % 0 mm 0.0 W/m2 CLR
01:29 -6.7 °C -8.8 °C 34313.7 hPa NE 26.9 km/h 26.9 km/h 78 % 0 mm 0.0 W/m2 CLR
01:34 -6.8 °C -8.9 °C 34313.7 hPa ENE 2.6 km/h 2.6 km/h 79 % 0 mm 0.0 W/m2 CLR
01:39 -6.9 °C -8.9 °C 34327.3 hPa NE 5.1 km/h 5.1 km/h 80 % 0 mm 0.0 W/m2 CLR
01:44 -7 °C -8.8 °C 34327.3 hPa Calm     81 % 0 mm 0.0 W/m2 CLR
01:49 -7.1 °C -8.8 °C 34327.3 hPa Calm     82 % 0 mm 0.0 W/m2 CLR
01:54 -7.1 °C -8.8 °C 34327.3 hPa Calm     82 % 0 mm 0.0 W/m2 CLR
01:59 -7.1 °C -8.7 °C 34327.3 hPa Calm     83 % 0 mm 0.0 W/m2 CLR
02:04 -7.2 °C -8.8 °C 34327.3 hPa Calm     83 % 0 mm 0.0 W/m2 CLR
02:09 -7.2 °C -8.8 °C 34327.3 hPa Calm     83 % 0 mm 0.0 W/m2 CLR
02:14 -7.2 °C -8.8 °C 34327.3 hPa Calm     84 % 0 mm 0.0 W/m2 CLR
02:19 -7.3 °C -8.8 °C 34327.3 hPa Calm     84 % 0 mm 0.0 W/m2 CLR
02:24 -7.3 °C -8.7 °C 34313.7 hPa Calm     85 % 0 mm 0.0 W/m2 CLR
02:29 -7.3 °C -8.7 °C 34313.7 hPa Calm     85 % 0 mm 0.0 W/m2 CLR
02:34 -7.3 °C -8.8 °C 34327.3 hPa Calm     85 % 0 mm 0.0 W/m2 CLR
02:39 -7.3 °C -8.8 °C 34313.7 hPa Calm     85 % 0 mm 0.0 W/m2 CLR
02:44 -7.4 °C -8.7 °C 34327.3 hPa Calm     86 % 0 mm 0.0 W/m2 CLR
02:49 -7.4 °C -8.7 °C 34337.4 hPa Calm     86 % 0 mm 0.0 W/m2 CLR
02:54 -7.4 °C -8.7 °C 34337.4 hPa Calm     86 % 0 mm 0.0 W/m2 CLR
02:59 -7.4 °C -8.8 °C 34337.4 hPa Calm     86 % 0 mm 0.0 W/m2 CLR
03:04 -7.4 °C -8.8 °C 34327.3 hPa Calm     86 % 0 mm 0.0 W/m2 CLR
03:09 -7.4 °C -8.8 °C 34313.7 hPa Calm     86 % 0 mm 0.0 W/m2 CLR
03:14 -7.4 °C -8.7 °C 34313.7 hPa Calm     86 % 0 mm 0.0 W/m2 CLR
03:19 -7.4 °C -8.7 °C 34303.6 hPa Calm     86 % 0 mm 0.0 W/m2 CLR
03:24 -7.4 °C -8.8 °C 34313.7 hPa Calm     86 % 0 mm 0.0 W/m2 CLR
03:29 -7.4 °C -8.8 °C 34313.7 hPa Calm     86 % 0 mm 0.0 W/m2 CLR
03:34 -7.4 °C -8.7 °C 34313.7 hPa Calm     87 % 0 mm 0.0 W/m2 CLR
03:39 -7.4 °C -8.7 °C 34313.7 hPa Calm     87 % 0 mm 0.0 W/m2 CLR
03:44 -7.4 °C -8.7 °C 34303.6 hPa Calm     87 % 0 mm 0.0 W/m2 CLR
03:49 -7.4 °C -8.7 °C 34303.6 hPa Calm     87 % 0 mm 0.0 W/m2 CLR
03:54 -7.4 °C -8.7 °C 34303.6 hPa Calm     87 % 0 mm 0.0 W/m2 CLR
03:59 -7.4 °C -8.8 °C 34293.4 hPa Calm     86 % 0 mm 0.0 W/m2 CLR
04:04 -7.4 °C -8.8 °C 34303.6 hPa Calm     86 % 0 mm 0.0 W/m2 CLR
04:09 -7.5 °C -8.7 °C 34303.6 hPa Calm     87 % 0 mm 0.0 W/m2 CLR
04:14 -7.6 °C -8.8 °C 34303.6 hPa Calm     87 % 0 mm 0.0 W/m2 CLR
04:16 -7.6 °C -8.8 °C 34293.4 hPa Calm     87 % 0 mm 0.0 W/m2 CLR
04:21 -7.6 °C -8.8 °C 34293.4 hPa Calm     87 % 0 mm 0.0 W/m2 CLR
04:26 -7.6 °C -8.8 °C 34293.4 hPa Calm     87 % 0 mm 0.0 W/m2 CLR
04:31 -7.7 °C -8.9 °C 34293.4 hPa Calm     87 % 0 mm 0.0 W/m2 CLR
04:36 -7.7 °C -8.9 °C 34293.4 hPa Calm     87 % 0 mm 0.0 W/m2 CLR
04:41 -7.7 °C -8.9 °C 34293.4 hPa Calm     87 % 0 mm 0.0 W/m2 CLR
04:46 -7.7 °C -9 °C 34293.4 hPa Calm     87 % 0 mm 0.0 W/m2 CLR
04:51 -7.8 °C -8.9 °C 34293.4 hPa Calm     88 % 0 mm 0.0 W/m2 CLR
04:56 -7.8 °C -8.9 °C 34293.4 hPa Calm     88 % 0 mm 0.0 W/m2 CLR
05:01 -7.9 °C -9 °C 34303.6 hPa Calm     88 % 0 mm 0.0 W/m2 CLR
05:06 -7.9 °C -9 °C 34303.6 hPa Calm     88 % 0 mm 0.0 W/m2 CLR
05:11 -7.9 °C -9 °C 34303.6 hPa Calm     88 % 0 mm 0.0 W/m2 CLR
05:16 -7.9 °C -9 °C 34303.6 hPa Calm     88 % 0 mm 0.0 W/m2 CLR
05:21 -7.9 °C -9.1 °C 34303.6 hPa Calm     88 % 0 mm 0.0 W/m2 CLR
05:26 -7.9 °C -9.1 °C 34313.7 hPa Calm     88 % 0 mm 0.0 W/m2 CLR
05:31 -7.9 °C -9.1 °C 34313.7 hPa Calm     88 % 0 mm 0.0 W/m2 CLR
05:36 -7.9 °C -9.1 °C 34313.7 hPa Calm     88 % 0 mm 0.0 W/m2 CLR
05:41 -7.9 °C -9.1 °C 34313.7 hPa Calm     88 % 0 mm 0.0 W/m2 CLR
05:46 -7.9 °C -9.1 °C 34327.3 hPa Calm     88 % 0 mm 0.0 W/m2 CLR
05:51 -7.9 °C -9.1 °C 34327.3 hPa Calm     88 % 0 mm 0.0 W/m2 CLR
05:56 -8 °C -9.1 °C 34327.3 hPa Calm     88 % 0 mm 0.0 W/m2 CLR
06:01 -8 °C -9.1 °C 34327.3 hPa Calm     88 % 0 mm 0.0 W/m2 CLR
06:11 -8.1 °C -9.1 °C 34327.3 hPa Calm     89 % 0 mm 0.0 W/m2 CLR
06:16 -8.1 °C -9.1 °C 34327.3 hPa Calm     89 % 0 mm 0.0 W/m2 CLR
06:21 -8.1 °C -9.1 °C 34327.3 hPa Calm     89 % 0 mm 0.0 W/m2 OVC
06:26 -8.2 °C -9.2 °C 34327.3 hPa Calm     89 % 0 mm 0.0 W/m2 OVC
06:31 -8.3 °C -9.3 °C 34327.3 hPa Calm     89 % 0 mm 0.0 W/m2 OVC
06:36 -8.3 °C -9.3 °C 34327.3 hPa Calm     89 % 0 mm 5.0 W/m2 OVC
06:41 -8.3 °C -9.3 °C 34327.3 hPa Calm     89 % 0 mm 5.0 W/m2 OVC
06:46 -8.3 °C -9.3 °C 34327.3 hPa Calm     90 % 0 mm 7.0 W/m2 BKN
06:51 -8.4 °C -9.3 °C 34327.3 hPa Calm     90 % 0 mm 12.0 W/m2 BKN
06:56 -8.4 °C -9.3 °C 34327.3 hPa Calm     90 % 0 mm 19.0 W/m2 BKN
07:01 -8.4 °C -9.3 °C 34327.3 hPa Calm     90 % 0 mm 26.0 W/m2 BKN
07:06 -8.4 °C -9.3 °C 34327.3 hPa Calm     90 % 0 mm 33.0 W/m2 BKN
07:11 -8.4 °C -9.3 °C 34327.3 hPa Calm     90 % 0 mm 39.0 W/m2 BKN
07:16 -8.4 °C -9.3 °C 34337.4 hPa Calm     90 % 0 mm 47.0 W/m2 SCT
07:21 -8.3 °C -9.3 °C 34337.4 hPa Calm     90 % 0 mm 67.0 W/m2 SCT
07:26 -8.3 °C -9.2 °C 34337.4 hPa Calm     90 % 0 mm 77.0 W/m2 FEW
07:31 -8.3 °C -9.2 °C 34337.4 hPa Calm     90 % 0 mm 93.0 W/m2 FEW
07:36 -8.2 °C -9.1 °C 34337.4 hPa Calm     90 % 0 mm 109.0 W/m2 CLR
07:41 -8.1 °C -9 °C 34337.4 hPa Calm     90 % 0 mm 127.0 W/m2 CLR
07:46 -7.9 °C -8.9 °C 34337.4 hPa Calm     89 % 0 mm 137.0 W/m2 CLR
07:51 -7.8 °C -8.9 °C 34337.4 hPa Calm     88 % 0 mm 149.0 W/m2 CLR
07:56 -7.7 °C -8.8 °C 34337.4 hPa Calm     88 % 0 mm 167.0 W/m2 CLR
08:01 -7.4 °C -8.7 °C 34337.4 hPa Calm     87 % 0 mm 186.0 W/m2 CLR
08:06 -7.3 °C -8.7 °C 34337.4 hPa Calm     85 % 0 mm 199.0 W/m2 CLR
08:11 -7.1 °C -8.7 °C 34337.4 hPa Calm     84 % 0 mm 213.0 W/m2 CLR
08:16 -6.9 °C -8.7 °C 34337.4 hPa Calm     82 % 0 mm 227.0 W/m2 CLR
08:17 -6.9 °C -8.7 °C 34337.4 hPa Calm     82 % 0 mm 236.0 W/m2 CLR
08:22 -6.8 °C -8.7 °C 34337.4 hPa Calm     81 % 0 mm 253.0 W/m2 CLR
08:27 -6.7 °C -8.7 °C 34337.4 hPa Calm     80 % 0 mm 264.0 W/m2 CLR
08:32 -6.5 °C -8.5 °C 34337.4 hPa Calm     80 % 0 mm 272.0 W/m2 CLR
08:37 -6.3 °C -8.5 °C 34347.6 hPa Calm     78 % 0 mm 285.0 W/m2 CLR
08:42 -6.2 °C -8.4 °C 34337.4 hPa Calm     78 % 0 mm 302.0 W/m2 CLR
08:47 -6 °C -8.4 °C 34347.6 hPa Calm     76 % 0 mm 316.0 W/m2 CLR
08:52 -5.9 °C -8.4 °C 34347.6 hPa Calm     75 % 0 mm 332.0 W/m2 CLR
08:58 -5.7 °C -8.4 °C 34347.6 hPa Calm     74 % 0 mm 348.0 W/m2 CLR
09:03 -5.6 °C -8.4 °C 34347.6 hPa Calm     73 % 0 mm 385.0 W/m2 CLR
09:08 -5.4 °C -8.5 °C 34347.6 hPa Calm     71 % 0 mm 404.0 W/m2 CLR
09:13 -5.3 °C -8.5 °C 34347.6 hPa Calm     70 % 0 mm 410.0 W/m2 CLR
09:18 -5.1 °C -8.8 °C 34347.6 hPa Calm     66 % 0 mm 434.0 W/m2 CLR
09:23 -5.1 °C -8.7 °C 34347.6 hPa Calm     66 % 0 mm 455.0 W/m2 CLR
09:28 -4.9 °C -8.5 °C 34347.6 hPa Calm     67 % 0 mm 476.0 W/m2 CLR
09:33 -4.8 °C -8.4 °C 34347.6 hPa Calm     67 % 0 mm 427.0 W/m2 CLR
09:38 -4.8 °C -8.4 °C 34347.6 hPa Calm     67 % 0 mm 446.0 W/m2 CLR
09:43 -4.8 °C -8.3 °C 34347.6 hPa NE 11.9 km/h 11.9 km/h 68 % 0 mm 529.0 W/m2 CLR
09:48 -4.8 °C -8.2 °C 34347.6 hPa NE 9 km/h 9 km/h 69 % 0 mm 480.0 W/m2 CLR
09:53 -4.8 °C -8.2 °C 34347.6 hPa NE 7.7 km/h 7.7 km/h 68 % 0 mm 399.0 W/m2 CLR
09:58 -4.8 °C -8.5 °C 34347.6 hPa Calm     66 % 0 mm 401.0 W/m2 CLR
10:03 -4.7 °C -8.4 °C 34347.6 hPa Calm     66 % 0 mm 596.0 W/m2 CLR
10:08 -4.6 °C -8.4 °C 34347.6 hPa ENE 15 km/h 15 km/h 65 % 0 mm 457.0 W/m2 CLR
10:13 -4.6 °C -8.3 °C 34361.1 hPa ENE 3.1 km/h 5.5 km/h 66 % 0 mm 555.0 W/m2 CLR
10:18 -4.4 °C -8.3 °C 34361.1 hPa Calm     65 % 0 mm 473.0 W/m2 CLR
10:23 -4.3 °C -8.3 °C 34361.1 hPa Calm     64 % 0 mm 548.0 W/m2 CLR
10:28 -4.3 °C -8.3 °C 34361.1 hPa NNE 11.9 km/h   64 % 0 mm 624.0 W/m2 CLR
10:33 -4.2 °C -8.2 °C 34361.1 hPa NE 9 km/h 9 km/h 64 % 0 mm 612.0 W/m2 CLR
10:38 -4.1 °C -8.2 °C 34361.1 hPa NE 9 km/h 9 km/h 64 % 0 mm 582.0 W/m2 CLR
10:43 -4.1 °C -8.1 °C 34361.1 hPa ENE 11.9 km/h   64 % 0 mm 526.0 W/m2 CLR
10:48 -4 °C -8.2 °C 34361.1 hPa NE 9 km/h 9 km/h 63 % 0 mm 568.0 W/m2 CLR
10:53 -4 °C -8.3 °C 34361.1 hPa Calm     62 % 0 mm 584.0 W/m2 CLR
10:58 -4 °C -8.2 °C 34347.6 hPa Calm     63 % 0 mm 605.0 W/m2 CLR
11:03 -4 °C -8.2 °C 34347.6 hPa NNE 9 km/h 9 km/h 63 % 0 mm 628.0 W/m2 CLR
11:08 -3.9 °C -8 °C 34347.6 hPa Calm     64 % 0 mm 585.0 W/m2 CLR
11:13 -3.8 °C -8.1 °C 34347.6 hPa Calm     62 % 0 mm 670.0 W/m2 CLR
11:18 -3.7 °C -8.3 °C 34347.6 hPa Calm     60 % 0 mm 675.0 W/m2 CLR
11:23 -3.6 °C -8 °C 34347.6 hPa NE 11.9 km/h 11.9 km/h 61 % 0 mm 675.0 W/m2 CLR
11:28 -3.4 °C -8.1 °C 34347.6 hPa NE 15 km/h 15 km/h 60 % 0 mm 566.0 W/m2 CLR
11:33 -3.4 °C -8.1 °C 34347.6 hPa Calm     60 % 0 mm 686.0 W/m2 CLR
11:38 -3.4 °C -8.2 °C 34347.6 hPa Calm     59 % 0 mm 564.0 W/m2 CLR
11:43 -3.2 °C -7.9 °C 34347.6 hPa NE 9 km/h 9 km/h 60 % 0 mm 619.0 W/m2 CLR
11:48 -3.2 °C -8.1 °C 34347.6 hPa Calm     58 % 0 mm 603.0 W/m2 CLR
11:53 -3.2 °C -8.2 °C 34347.6 hPa North 20.9 km/h 20.9 km/h 58 % 0 mm 696.0 W/m2 CLR
11:58 -3.2 °C -8.2 °C 34347.6 hPa NE 15.6 km/h 15.6 km/h 58 % 0 mm 738.0 W/m2 CLR
12:03 -3.2 °C -8.2 °C 34347.6 hPa North 11.9 km/h 11.9 km/h 58 % 0 mm 759.0 W/m2 CLR
12:08 -3.2 °C -8.2 °C 34347.6 hPa North 10.3 km/h 10.3 km/h 58 % 0 mm 650.0 W/m2 CLR
12:13 -3.1 °C -8.2 °C 34347.6 hPa NE 15 km/h 15 km/h 57 % 0 mm 780.0 W/m2 CLR
12:18 -2.9 °C -8.2 °C 34347.6 hPa NNE 9 km/h 9 km/h 56 % 0 mm 759.0 W/m2 CLR
12:23 -2.8 °C -8.1 °C 34347.6 hPa NE 20.9 km/h 20.9 km/h 56 % 0 mm 786.0 W/m2 CLR
12:28 -2.7 °C -8.4 °C 34347.6 hPa ENE 17.9 km/h 17.9 km/h 54 % 0 mm 828.0 W/m2 CLR
12:33 -2.6 °C -8.4 °C 34347.6 hPa ENE 23.8 km/h 23.8 km/h 53 % 0 mm 812.0 W/m2 CLR
12:38 -2.6 °C -8.4 °C 34337.4 hPa ENE 26.9 km/h 26.9 km/h 53 % 0 mm 751.0 W/m2 CLR
12:43 -2.6 °C -8.7 °C 34347.6 hPa NNE 9 km/h 9 km/h 51 % 0 mm 795.0 W/m2 CLR
12:48 -2.6 °C -8.6 °C 34347.6 hPa NE 11.9 km/h 11.9 km/h 52 % 0 mm 853.0 W/m2 CLR
12:53 -2.6 °C -8.7 °C 34347.6 hPa ENE 20.9 km/h 20.9 km/h 51 % 0 mm 868.0 W/m2 CLR
12:58 -2.5 °C -8.8 °C 34347.6 hPa ENE 11.9 km/h 11.9 km/h 50 % 0 mm 763.0 W/m2 CLR
13:03 -2.4 °C -8.6 °C 34347.6 hPa North 18.2 km/h 18.2 km/h 51 % 0 mm 867.0 W/m2 CLR
13:08 -2.3 °C -8.8 °C 34337.4 hPa Calm     49 % 0 mm 851.0 W/m2 CLR
13:13 -2.3 °C -8.7 °C 34337.4 hPa North 17.9 km/h 17.9 km/h 50 % 0 mm 828.0 W/m2 CLR
13:18 -2.3 °C -8.6 °C 34337.4 hPa NNE 20.9 km/h 20.9 km/h 50 % 0 mm 684.0 W/m2 CLR
13:23 -2.3 °C -8.7 °C 34337.4 hPa Calm     50 % 0 mm 626.0 W/m2 CLR
13:28 -2.3 °C -8.4 °C 34337.4 hPa Calm     51 % 0 mm 770.0 W/m2 CLR
13:33 -2.1 °C -8.4 °C 34337.4 hPa NNE 15 km/h 15 km/h 50 % 0 mm 809.0 W/m2 CLR
13:38 -2.1 °C -8.6 °C 34337.4 hPa Calm     49 % 0 mm 798.0 W/m2 CLR
13:43 -2 °C -8.4 °C 34327.3 hPa NNE 17.9 km/h 17.9 km/h 50 % 0 mm 911.0 W/m2 CLR
13:48 -1.9 °C -8.4 °C 34327.3 hPa ENE 15 km/h 15 km/h 49 % 0 mm 872.0 W/m2 CLR
13:53 -1.8 °C -8.4 °C 34327.3 hPa NNE 9 km/h 9 km/h 49 % 0 mm 914.0 W/m2 CLR
13:58 -1.9 °C -8.4 °C 34327.3 hPa NNE 17.9 km/h 17.9 km/h 49 % 0 mm 940.0 W/m2 CLR
14:03 -1.8 °C -8 °C 34327.3 hPa Calm     51 % 0 mm 744.0 W/m2 CLR
14:08 -1.6 °C -8.3 °C 34327.3 hPa North 20.9 km/h 20.9 km/h 48 % 0 mm 803.0 W/m2 CLR
14:13 -1.6 °C -8.3 °C 34327.3 hPa North 20.9 km/h 20.9 km/h 48 % 0 mm 870.0 W/m2 CLR
14:18 -1.4 °C -8.2 °C 34327.3 hPa Calm     48 % 0 mm 833.0 W/m2 CLR
14:23 -1.3 °C -8.4 °C 34313.7 hPa SE 11.9 km/h 11.9 km/h 46 % 0 mm 874.0 W/m2 CLR
14:28 -1.3 °C -8.3 °C 34313.7 hPa ESE 11.9 km/h 11.9 km/h 47 % 0 mm 891.0 W/m2 CLR
14:33 -1.3 °C -8.7 °C 34313.7 hPa SE 9 km/h 9 km/h 45 % 0 mm 889.0 W/m2 CLR
14:38 -1.3 °C -8.3 °C 34313.7 hPa ENE 9 km/h 9 km/h 47 % 0 mm 889.0 W/m2 CLR
14:43 -1.2 °C -8.2 °C 34313.7 hPa ENE 29.8 km/h 29.8 km/h 47 % 0 mm 909.0 W/m2 CLR
14:48 -1.2 °C -8.2 °C 34313.7 hPa ESE 3.1 km/h   47 % 0 mm 900.0 W/m2 CLR
14:53 -1.1 °C -7.9 °C 34313.7 hPa ESE 9 km/h 9 km/h 48 % 0 mm 889.0 W/m2 CLR
14:58 -1 °C -8.2 °C 34313.7 hPa SSE 23.8 km/h 23.8 km/h 46 % 0 mm 803.0 W/m2 CLR
15:03 -1.2 °C -8.1 °C 34313.7 hPa East 29.8 km/h 29.8 km/h 47 % 0 mm 909.0 W/m2 CLR
15:08 -1.2 °C -8.1 °C 34313.7 hPa ESE 20.8 km/h 20.8 km/h 47 % 0 mm 919.0 W/m2 CLR
15:13 -1.1 °C -8.2 °C 34303.6 hPa ESE 23.3 km/h 23.3 km/h 46 % 0 mm 884.0 W/m2 CLR
15:18 -1.2 °C -8.1 °C 34303.6 hPa NE 23.8 km/h 23.8 km/h 47 % 0 mm 905.0 W/m2 CLR
15:23 -1.1 °C -8.2 °C 34303.6 hPa East 23.8 km/h 23.8 km/h 46 % 0 mm 758.0 W/m2 CLR
15:28 -1.1 °C -7.8 °C 34303.6 hPa ENE 20.9 km/h 20.9 km/h 48 % 0 mm 807.0 W/m2 CLR
15:33 -0.9 °C -7.9 °C 34303.6 hPa ESE 29.8 km/h 29.8 km/h 47 % 0 mm 865.0 W/m2 CLR
15:38 -1 °C -8 °C 34303.6 hPa ESE 17.9 km/h 17.9 km/h 47 % 0 mm 816.0 W/m2 CLR
15:43 -0.9 °C -8.3 °C 34303.6 hPa ESE 23.8 km/h 23.8 km/h 45 % 0 mm 816.0 W/m2 CLR
15:48 -1 °C -8.2 °C 34303.6 hPa ENE 6 km/h 6 km/h 46 % 0 mm 821.0 W/m2 CLR
15:54 -0.9 °C -8.2 °C 34303.6 hPa East 26.9 km/h 26.9 km/h 45 % 0 mm 747.0 W/m2 CLR
15:59 -1.2 °C -8.3 °C 34303.6 hPa NNE 15 km/h 15 km/h 46 % 0 mm 577.0 W/m2 CLR
16:04 -1.1 °C -8.3 °C 34303.6 hPa NE 26.9 km/h 26.9 km/h 46 % 0 mm 823.0 W/m2 CLR
16:09 -1 °C -8.4 °C 34303.6 hPa ENE 26.9 km/h 26.9 km/h 45 % 0 mm 807.0 W/m2 CLR
16:14 -0.9 °C -8.4 °C 34293.4 hPa ENE 29.8 km/h 29.8 km/h 44 % 0 mm 819.0 W/m2 CLR
16:19 -0.9 °C -8.4 °C 34293.4 hPa ENE 29.8 km/h 29.8 km/h 44 % 0 mm 693.0 W/m2 CLR
16:24 -0.8 °C -8.6 °C 34293.4 hPa ENE 26.9 km/h 26.9 km/h 43 % 0 mm 726.0 W/m2 CLR
16:29 -0.8 °C -8.6 °C 34293.4 hPa NE 26.9 km/h 26.9 km/h 43 % 0 mm 584.0 W/m2 CLR
16:34 -0.7 °C -8.5 °C 34293.4 hPa East 26.9 km/h 26.9 km/h 43 % 0 mm 721.0 W/m2 CLR
16:39 -0.8 °C -8.6 °C 34293.4 hPa ENE 32.8 km/h 32.8 km/h 43 % 0 mm 803.0 W/m2 CLR
16:40 -0.8 °C -8.6 °C 34293.4 hPa East 38.8 km/h 38.8 km/h 43 % 0 mm 803.0 W/m2 CLR
16:45 -0.8 °C -8.6 °C 34293.4 hPa East 23.8 km/h 23.8 km/h 43 % 0 mm 427.0 W/m2 CLR
16:50 -0.8 °C -8.6 °C 34293.4 hPa ENE 26.9 km/h 26.9 km/h 43 % 0 mm 649.0 W/m2 CLR
16:53 -0.8 °C -8.6 °C 34293.4 hPa NE 32.8 km/h 32.8 km/h 43 % 0 mm 473.0 W/m2 CLR
16:58 -0.8 °C -8.6 °C 34293.4 hPa ENE 17.9 km/h 17.9 km/h 43 % 0 mm 754.0 W/m2 CLR
17:03 -0.7 °C -8.2 °C 34279.9 hPa East 11.9 km/h 11.9 km/h 44 % 0 mm 740.0 W/m2 CLR
17:05 -0.7 °C -8.4 °C 34293.4 hPa East 29.8 km/h 29.8 km/h 43 % 0 mm 721.0 W/m2 CLR
17:10 -0.6 °C -8.2 °C 34293.4 hPa East 9 km/h 9 km/h 44 % 0 mm 691.0 W/m2 CLR
17:15 -0.7 °C -8.4 °C 34279.9 hPa East 29.8 km/h 29.8 km/h 43 % 0 mm 640.0 W/m2 CLR
17:20 -0.7 °C -8.5 °C 34279.9 hPa ESE 25.9 km/h 25.9 km/h 43 % 0 mm 631.0 W/m2 CLR
17:25 -0.7 °C -8.5 °C 34279.9 hPa SE 23.8 km/h 23.8 km/h 43 % 0 mm 612.0 W/m2 CLR
17:30 -0.7 °C -8.4 °C 34279.9 hPa ESE 33.6 km/h 33.6 km/h 43 % 0 mm 622.0 W/m2 CLR
17:35 -0.8 °C -9 °C 34279.9 hPa SE 38.8 km/h 38.8 km/h 41 % 0 mm 615.0 W/m2 CLR
17:40 -0.8 °C -9 °C 34279.9 hPa SE 29.8 km/h 29.8 km/h 41 % 0 mm 592.0 W/m2 CLR
17:45 -0.9 °C -9.1 °C 34279.9 hPa ESE 38.8 km/h 38.8 km/h 41 % 0 mm 575.0 W/m2 CLR
17:50 -0.9 °C -9.1 °C 34279.9 hPa ESE 35.7 km/h 35.7 km/h 41 % 0 mm 552.0 W/m2 CLR
17:55 -0.9 °C -9.1 °C 34279.9 hPa ESE 32.8 km/h 32.8 km/h 41 % 0 mm 541.0 W/m2 CLR
18:00 -0.9 °C -9.1 °C 34279.9 hPa SE 29.8 km/h 29.8 km/h 41 % 0 mm 529.0 W/m2 CLR
18:05 -0.9 °C -9.1 °C 34279.9 hPa ESE 38.8 km/h 38.8 km/h 41 % 0 mm 517.0 W/m2 CLR
18:10 -0.8 °C -8.8 °C 34279.9 hPa SE 29.8 km/h 29.8 km/h 42 % 0 mm 503.0 W/m2 CLR
18:15 -0.9 °C -9.3 °C 34279.9 hPa ESE 32.8 km/h 32.8 km/h 40 % 0 mm 478.0 W/m2 CLR
18:20 -0.9 °C -9.1 °C 34279.9 hPa SE 44.7 km/h 44.7 km/h 41 % 0 mm 466.0 W/m2 CLR
18:25 -1 °C -9.2 °C 34269.7 hPa ESE 32.8 km/h 32.8 km/h 41 % 0 mm 450.0 W/m2 CLR
18:30 -1 °C -9.2 °C 34279.9 hPa ESE 29.8 km/h 29.8 km/h 41 % 0 mm 445.0 W/m2 CLR
18:35 -1 °C -8.9 °C 34279.9 hPa ESE 29.8 km/h 29.8 km/h 42 % 0 mm 439.0 W/m2 CLR
18:41 -1.1 °C -9.3 °C 34279.9 hPa East 35.7 km/h 35.7 km/h 41 % 0 mm 411.0 W/m2 CLR
18:45 -1.1 °C -9 °C 34279.9 hPa ESE 20.9 km/h 20.9 km/h 42 % 0 mm 403.0 W/m2 CLR
18:51 -1.1 °C -9.1 °C 34279.9 hPa SE 32.8 km/h 32.8 km/h 42 % 0 mm 383.0 W/m2 CLR
18:56 -1.2 °C -8.9 °C 34279.9 hPa ESE 29.8 km/h 29.8 km/h 43 % 0 mm 366.0 W/m2 CLR
19:01 -1.3 °C -9 °C 34279.9 hPa SE 26.9 km/h 26.9 km/h 43 % 0 mm 352.0 W/m2 CLR
19:06 -1.3 °C -9 °C 34279.9 hPa SE 26.9 km/h 26.9 km/h 43 % 0 mm 334.0 W/m2 CLR
19:11 -1.4 °C -9.3 °C 34279.9 hPa SE 29.8 km/h 29.8 km/h 42 % 0 mm 322.0 W/m2 CLR
19:16 -1.5 °C -9.2 °C 34279.9 hPa SE 29.8 km/h 29.8 km/h 43 % 0 mm 309.0 W/m2 CLR
19:21 -1.6 °C -9.7 °C 34279.9 hPa SE 29.8 km/h 29.8 km/h 41 % 0 mm 297.0 W/m2 CLR
19:26 -1.6 °C -9.7 °C 34293.4 hPa ESE 29.8 km/h 29.8 km/h 41 % 0 mm 276.0 W/m2 CLR
19:31 -1.7 °C -9.9 °C 34293.4 hPa ESE 26.9 km/h 26.9 km/h 40 % 0 mm 258.0 W/m2 CLR
19:36 -1.7 °C -9.8 °C 34293.4 hPa ESE 28.5 km/h 28.5 km/h 41 % 0 mm 237.0 W/m2 CLR
19:41 -1.8 °C -9.9 °C 34293.4 hPa SSE 26.9 km/h 26.9 km/h 41 % 0 mm 218.0 W/m2 CLR
19:46 -1.8 °C -10.1 °C 34293.4 hPa SE 20.9 km/h 20.9 km/h 40 % 0 mm 192.0 W/m2 CLR
19:51 -1.8 °C -10.2 °C 34293.4 hPa SE 26.9 km/h 26.9 km/h 40 % 0 mm 169.0 W/m2 CLR
19:56 -1.9 °C -10.1 °C 34293.4 hPa SSE 23.3 km/h 23.3 km/h 41 % 0 mm 151.0 W/m2 CLR
20:01 -2.1 °C -9.9 °C 34293.4 hPa SE 23.8 km/h 23.8 km/h 42 % 0 mm 141.0 W/m2 CLR
20:06 -2.1 °C -9.9 °C 34293.4 hPa SE 15 km/h 15 km/h 42 % 0 mm 128.0 W/m2 CLR
20:11 -2.2 °C -10.1 °C 34303.6 hPa SE 26.9 km/h 26.9 km/h 42 % 0 mm 118.0 W/m2 CLR
20:16 -2.2 °C -9.8 °C 34293.4 hPa SE 7.7 km/h 7.7 km/h 43 % 0 mm 107.0 W/m2 CLR
20:21 -2.3 °C -9.9 °C 34303.6 hPa ESE 15.6 km/h 15.8 km/h 43 % 0 mm 98.0 W/m2 CLR
20:26 -2.4 °C -10.1 °C 34303.6 hPa SE 23.8 km/h 23.8 km/h 43 % 0 mm 91.0 W/m2 CLR
20:31 -2.5 °C -9.9 °C 34303.6 hPa SE 11.9 km/h 11.9 km/h 44 % 0 mm 79.0 W/m2 FEW
20:32 -2.5 °C -9.9 °C 34303.6 hPa ESE 9 km/h 9 km/h 44 % 0 mm 83.0 W/m2 FEW
20:37 -2.6 °C -9.9 °C 34303.6 hPa SSE 23.8 km/h 23.8 km/h 44 % 0 mm 72.0 W/m2 FEW
20:42 -2.7 °C -10.1 °C 34303.6 hPa SE 17.9 km/h 17.9 km/h 44 % 0 mm 62.0 W/m2 SCT
20:47 -2.7 °C -9.9 °C 34313.7 hPa SE 11.9 km/h 11.9 km/h 45 % 0 mm 44.0 W/m2 BKN
20:52 -2.8 °C -10.1 °C 34313.7 hPa Calm     45 % 0 mm 42.0 W/m2 BKN
20:57 -2.9 °C -10.1 °C 34313.7 hPa Calm     45 % 0 mm 37.0 W/m2 BKN
21:02 -2.9 °C -9.6 °C 34313.7 hPa Calm     48 % 0 mm 30.0 W/m2 BKN
21:07 -3.1 °C -9.6 °C 34313.7 hPa Calm     49 % 0 mm 25.0 W/m2 BKN
21:12 -3.4 °C -9.4 °C 34313.7 hPa Calm     51 % 0 mm 19.0 W/m2 BKN
21:17 -3.6 °C -9.5 °C 34327.3 hPa Calm     52 % 0 mm 14.0 W/m2 BKN
21:22 -3.7 °C -9.6 °C 34327.3 hPa ESE 11.9 km/h 11.9 km/h 52 % 0 mm 9.0 W/m2 BKN
21:27 -3.8 °C -9.6 °C 34327.3 hPa Calm     53 % 0 mm 0.0 W/m2 OVC
21:32 -3.9 °C -9.8 °C 34327.3 hPa Calm     52 % 0 mm 0.0 W/m2 OVC
21:37 -4.1 °C -9.9 °C 34327.3 hPa Calm     52 % 0 mm 0.0 W/m2 OVC
21:42 -4.1 °C -9.8 °C 34327.3 hPa Calm     53 % 0 mm 0.0 W/m2 CLR
21:47 -4.2 °C -9.8 °C 34337.4 hPa Calm     53 % 0 mm 0.0 W/m2 CLR
21:52 -4.3 °C -9.8 °C 34337.4 hPa Calm     54 % 0 mm 0.0 W/m2 CLR
21:57 -4.4 °C -9.9 °C 34337.4 hPa Calm     54 % 0 mm 0.0 W/m2 CLR
22:02 -4.6 °C -9.7 °C 34337.4 hPa Calm     56 % 0 mm 0.0 W/m2 CLR
22:07 -4.6 °C -9.8 °C 34337.4 hPa Calm     56 % 0 mm 0.0 W/m2 CLR
22:12 -4.7 °C -9.7 °C 34337.4 hPa Calm     57 % 0 mm 0.0 W/m2 CLR
22:17 -4.8 °C -9.7 °C 34337.4 hPa Calm     58 % 0 mm 0.0 W/m2 CLR
22:22 -4.9 °C -9.7 °C 34347.6 hPa Calm     59 % 0 mm 0.0 W/m2 CLR
22:27 -5.1 °C -9.8 °C 34347.6 hPa Calm     59 % 0 mm 0.0 W/m2 CLR
22:32 -5.2 °C -9.7 °C 34347.6 hPa Calm     60 % 0 mm 0.0 W/m2 CLR
22:37 -5.2 °C -9.8 °C 34347.6 hPa Calm     60 % 0 mm 0.0 W/m2 CLR
22:42 -5.3 °C -9.7 °C 34361.1 hPa Calm     61 % 0 mm 0.0 W/m2 CLR
22:47 -5.4 °C -9.8 °C 34361.1 hPa Calm     61 % 0 mm 0.0 W/m2 CLR
22:52 -5.4 °C -9.7 °C 34361.1 hPa Calm     62 % 0 mm 0.0 W/m2 CLR
22:57 -5.5 °C -9.9 °C 34361.1 hPa Calm     61 % 0 mm 0.0 W/m2 CLR
23:02 -5.5 °C -9.9 °C 34361.1 hPa Calm     61 % 0 mm 0.0 W/m2 CLR
23:07 -5.5 °C -9.9 °C 34361.1 hPa Calm     61 % 0 mm 0.0 W/m2 CLR
23:12 -5.5 °C -9.9 °C 34361.1 hPa Calm     61 % 0 mm 0.0 W/m2 CLR
23:17 -5.5 °C -9.9 °C 34361.1 hPa Calm     61 % 0 mm 0.0 W/m2 CLR
23:22 -5.5 °C -9.9 °C 34361.1 hPa Calm     61 % 0 mm 0.0 W/m2 CLR
23:27 -5.5 °C -9.9 °C 34361.1 hPa Calm     61 % 0 mm 0.0 W/m2 CLR
23:28 -5.6 °C -9.9 °C 34361.1 hPa Calm     61 % 0 mm 0.0 W/m2 CLR
23:33 -5.6 °C -9.9 °C 34361.1 hPa Calm     61 % 0 mm 0.0 W/m2 CLR
23:38 -5.6 °C -10.1 °C 34371.3 hPa Calm     60 % 0 mm 0.0 W/m2 CLR
23:43 -5.6 °C -9.9 °C 34371.3 hPa Calm     61 % 0 mm 0.0 W/m2 CLR
23:48 -5.6 °C -9.9 °C 34371.3 hPa Calm     61 % 0 mm 0.0 W/m2 CLR
23:53 -5.6 °C -9.7 °C 34371.3 hPa Calm     63 % 0 mm 0.0 W/m2 CLR
23:58 -5.8 °C -9.8 °C 34371.3 hPa ESE 9 km/h   63 % 0 mm 0.0 W/m2 CLR
Lo Temps de Massalio
Compliments of Weather Underground - 1.25 mb